sensor_id;sensor_type;location;lat;lon;timestamp;pressure;altitude;pressure_sealevel;temperature;humidity
33161;BME280;19522;45.656;11.302;2023-01-19T00:01:46;96431.47;;;0.55;100.00
33161;BME280;19522;45.656;11.302;2023-01-19T00:04:12;96547.19;;;1.27;100.00
33161;BME280;19522;45.656;11.302;2023-01-19T00:06:37;96568.47;;;1.43;100.00
33161;BME280;19522;45.656;11.302;2023-01-19T00:09:06;96528.72;;;1.08;100.00
33161;BME280;19522;45.656;11.302;2023-01-19T00:11:31;96558.84;;;1.34;100.00
33161;BME280;19522;45.656;11.302;2023-01-19T00:13:57;96569.09;;;1.53;100.00
33161;BME280;19522;45.656;11.302;2023-01-19T00:16:23;96581.72;;;1.68;100.00
33161;BME280;19522;45.656;11.302;2023-01-19T00:18:50;96570.41;;;1.81;100.00
33161;BME280;19522;45.656;11.302;2023-01-19T00:21:16;96585.28;;;1.60;100.00
33161;BME280;19522;45.656;11.302;2023-01-19T00:23:42;96555.69;;;1.30;100.00
33161;BME280;19522;45.656;11.302;2023-01-19T00:26:14;96476.09;;;0.77;100.00
33161;BME280;19522;45.656;11.302;2023-01-19T00:28:42;96591.84;;;1.49;100.00
33161;BME280;19522;45.656;11.302;2023-01-19T00:31:07;96563.59;;;1.47;100.00
33161;BME280;19522;45.656;11.302;2023-01-19T00:33:33;96591.88;;;1.73;100.00
33161;BME280;19522;45.656;11.302;2023-01-19T00:35:58;96578.25;;;1.82;100.00
33161;BME280;19522;45.656;11.302;2023-01-19T00:38:24;96511.97;;;1.46;100.00
33161;BME280;19522;45.656;11.302;2023-01-19T00:40:49;96568.44;;;1.75;100.00
33161;BME280;19522;45.656;11.302;2023-01-19T00:43:15;96577.06;;;1.85;99.71
33161;BME280;19522;45.656;11.302;2023-01-19T00:45:40;96581.47;;;1.78;100.00
33161;BME280;19522;45.656;11.302;2023-01-19T00:48:06;96590.69;;;1.52;100.00
33161;BME280;19522;45.656;11.302;2023-01-19T00:50:32;96559.50;;;1.04;100.00
33161;BME280;19522;45.656;11.302;2023-01-19T00:52:58;96587.09;;;0.97;100.00
33161;BME280;19522;45.656;11.302;2023-01-19T00:55:28;96539.59;;;1.07;100.00
33161;BME280;19522;45.656;11.302;2023-01-19T00:57:54;96537.06;;;1.14;100.00
33161;BME280;19522;45.656;11.302;2023-01-19T01:00:20;96581.94;;;1.58;100.00
33161;BME280;19522;45.656;11.302;2023-01-19T01:02:48;96554.09;;;1.44;100.00
33161;BME280;19522;45.656;11.302;2023-01-19T01:05:15;96580.09;;;1.27;100.00
33161;BME280;19522;45.656;11.302;2023-01-19T01:07:41;96510.91;;;1.01;100.00
33161;BME280;19522;45.656;11.302;2023-01-19T01:10:34;96578.66;;;1.48;100.00
33161;BME280;19522;45.656;11.302;2023-01-19T01:13:00;96585.81;;;1.55;100.00
33161;BME280;19522;45.656;11.302;2023-01-19T01:15:26;96586.09;;;1.61;100.00
33161;BME280;19522;45.656;11.302;2023-01-19T01:17:54;96586.47;;;1.58;100.00
33161;BME280;19522;45.656;11.302;2023-01-19T01:20:24;96538.75;;;1.38;100.00
33161;BME280;19522;45.656;11.302;2023-01-19T01:22:52;96584.06;;;1.86;100.00
33161;BME280;19522;45.656;11.302;2023-01-19T01:25:20;96580.75;;;1.84;100.00
33161;BME280;19522;45.656;11.302;2023-01-19T01:27:47;96565.53;;;1.84;99.95
33161;BME280;19522;45.656;11.302;2023-01-19T01:30:13;96542.97;;;1.79;99.41
33161;BME280;19522;45.656;11.302;2023-01-19T01:32:39;96566.13;;;1.95;98.46
33161;BME280;19522;45.656;11.302;2023-01-19T01:35:06;96568.91;;;2.01;98.85
33161;BME280;19522;45.656;11.302;2023-01-19T01:37:33;96563.06;;;1.98;98.41
33161;BME280;19522;45.656;11.302;2023-01-19T01:39:59;96519.91;;;1.78;98.24
33161;BME280;19522;45.656;11.302;2023-01-19T01:42:27;96575.19;;;2.09;97.99
33161;BME280;19522;45.656;11.302;2023-01-19T01:44:55;96555.78;;;1.68;97.88
33161;BME280;19522;45.656;11.302;2023-01-19T01:50:09;96563.75;;;0.90;100.00
33161;BME280;19522;45.656;11.302;2023-01-19T01:52:39;96545.78;;;1.07;100.00
33161;BME280;19522;45.656;11.302;2023-01-19T01:55:08;96543.19;;;1.22;100.00
33161;BME280;19522;45.656;11.302;2023-01-19T01:57:38;96580.38;;;1.64;100.00
33161;BME280;19522;45.656;11.302;2023-01-19T02:00:06;96583.19;;;1.70;100.00
33161;BME280;19522;45.656;11.302;2023-01-19T02:02:34;96588.00;;;1.75;100.00
33161;BME280;19522;45.656;11.302;2023-01-19T02:05:28;96592.75;;;1.65;100.00
33161;BME280;19522;45.656;11.302;2023-01-19T02:08:07;96601.00;;;1.55;100.00
33161;BME280;19522;45.656;11.302;2023-01-19T02:11:14;96595.19;;;1.75;100.00
33161;BME280;19522;45.656;11.302;2023-01-19T02:13:58;96566.81;;;1.42;100.00
33161;BME280;19522;45.656;11.302;2023-01-19T02:16:23;96583.88;;;1.41;100.00
33161;BME280;19522;45.656;11.302;2023-01-19T02:18:49;96594.31;;;1.59;100.00
33161;BME280;19522;45.656;11.302;2023-01-19T02:23:59;96585.56;;;1.89;100.00
33161;BME280;19522;45.656;11.302;2023-01-19T02:26:34;96554.56;;;1.71;100.00
33161;BME280;19522;45.656;11.302;2023-01-19T02:29:07;96581.31;;;1.94;100.00
33161;BME280;19522;45.656;11.302;2023-01-19T02:31:34;96562.44;;;1.96;100.00
33161;BME280;19522;45.656;11.302;2023-01-19T02:34:02;96575.00;;;2.10;100.00
33161;BME280;19522;45.656;11.302;2023-01-19T02:36:44;96580.13;;;2.20;99.54
33161;BME280;19522;45.656;11.302;2023-01-19T02:39:12;96572.72;;;2.22;98.87
33161;BME280;19522;45.656;11.302;2023-01-19T02:41:45;96571.59;;;2.16;98.82
33161;BME280;19522;45.656;11.302;2023-01-19T02:44:13;96528.78;;;1.93;98.23
33161;BME280;19522;45.656;11.302;2023-01-19T02:46:39;96564.19;;;2.03;98.02
33161;BME280;19522;45.656;11.302;2023-01-19T02:49:05;96575.66;;;2.12;97.86
33161;BME280;19522;45.656;11.302;2023-01-19T02:51:32;96556.00;;;2.05;97.72
33161;BME280;19522;45.656;11.302;2023-01-19T02:59:32;96583.00;;;1.72;99.66
33161;BME280;19522;45.656;11.302;2023-01-19T03:05:09;96593.19;;;1.22;100.00
33161;BME280;19522;45.656;11.302;2023-01-19T03:15:47;96583.78;;;1.81;100.00
33161;BME280;19522;45.656;11.302;2023-01-19T03:18:15;96585.28;;;1.83;100.00
33161;BME280;19522;45.656;11.302;2023-01-19T03:20:43;96567.81;;;1.73;100.00
33161;BME280;19522;45.656;11.302;2023-01-19T03:23:11;96577.59;;;1.80;100.00
33161;BME280;19522;45.656;11.302;2023-01-19T03:25:41;96579.38;;;1.88;99.73
33161;BME280;19522;45.656;11.302;2023-01-19T03:28:07;96608.00;;;2.11;99.38
33161;BME280;19522;45.656;11.302;2023-01-19T03:33:26;96612.50;;;2.10;98.54
33161;BME280;19522;45.656;11.302;2023-01-19T03:35:57;96617.31;;;1.68;100.00
33161;BME280;19522;45.656;11.302;2023-01-19T03:38:27;96629.72;;;1.38;100.00
33161;BME280;19522;45.656;11.302;2023-01-19T03:40:59;96602.13;;;1.37;100.00
33161;BME280;19522;45.656;11.302;2023-01-19T03:43:27;96623.28;;;1.79;100.00
33161;BME280;19522;45.656;11.302;2023-01-19T03:45:54;96581.34;;;1.71;100.00
33161;BME280;19522;45.656;11.302;2023-01-19T03:48:21;96617.66;;;1.97;100.00
33161;BME280;19522;45.656;11.302;2023-01-19T03:50:47;96619.28;;;1.98;100.00
33161;BME280;19522;45.656;11.302;2023-01-19T03:53:15;96603.59;;;1.95;100.00
33161;BME280;19522;45.656;11.302;2023-01-19T03:55:45;96619.06;;;2.08;100.00
33161;BME280;19522;45.656;11.302;2023-01-19T03:58:11;96622.13;;;2.20;99.88
33161;BME280;19522;45.656;11.302;2023-01-19T04:00:37;96584.84;;;1.95;99.09
33161;BME280;19522;45.656;11.302;2023-01-19T04:03:04;96577.47;;;1.74;99.73
33161;BME280;19522;45.656;11.302;2023-01-19T04:05:30;96586.94;;;1.84;99.74
33161;BME280;19522;45.656;11.302;2023-01-19T04:07:56;96621.94;;;2.06;100.00
33161;BME280;19522;45.656;11.302;2023-01-19T04:10:22;96583.25;;;1.85;100.00
33161;BME280;19522;45.656;11.302;2023-01-19T04:12:47;96589.09;;;1.66;100.00
33161;BME280;19522;45.656;11.302;2023-01-19T04:15:14;96607.56;;;1.99;100.00
33161;BME280;19522;45.656;11.302;2023-01-19T04:17:40;96630.53;;;2.16;100.00
33161;BME280;19522;45.656;11.302;2023-01-19T04:20:07;96636.31;;;2.05;100.00
33161;BME280;19522;45.656;11.302;2023-01-19T04:22:33;96540.13;;;1.57;100.00
33161;BME280;19522;45.656;11.302;2023-01-19T04:24:59;96599.91;;;1.73;100.00
33161;BME280;19522;45.656;11.302;2023-01-19T04:27:25;96620.16;;;1.44;100.00
33161;BME280;19522;45.656;11.302;2023-01-19T04:29:51;96630.19;;;1.42;100.00
33161;BME280;19522;45.656;11.302;2023-01-19T04:32:17;96647.50;;;1.54;100.00
33161;BME280;19522;45.656;11.302;2023-01-19T04:34:42;96648.91;;;1.73;100.00
33161;BME280;19522;45.656;11.302;2023-01-19T04:37:08;96641.44;;;1.92;100.00
33161;BME280;19522;45.656;11.302;2023-01-19T04:39:34;96645.84;;;1.84;100.00
33161;BME280;19522;45.656;11.302;2023-01-19T04:41:59;96646.44;;;1.95;100.00
33161;BME280;19522;45.656;11.302;2023-01-19T04:44:26;96654.41;;;2.03;100.00
33161;BME280;19522;45.656;11.302;2023-01-19T04:46:52;96617.34;;;1.92;100.00
33161;BME280;19522;45.656;11.302;2023-01-19T04:49:19;96644.63;;;2.10;100.00
33161;BME280;19522;45.656;11.302;2023-01-19T04:51:44;96631.25;;;2.10;100.00
33161;BME280;19522;45.656;11.302;2023-01-19T04:54:10;96608.47;;;2.14;100.00
33161;BME280;19522;45.656;11.302;2023-01-19T04:56:35;96639.25;;;2.33;100.00
33161;BME280;19522;45.656;11.302;2023-01-19T04:59:01;96637.72;;;2.39;100.00
33161;BME280;19522;45.656;11.302;2023-01-19T05:01:27;96634.13;;;2.47;100.00
33161;BME280;19522;45.656;11.302;2023-01-19T05:03:53;96630.72;;;2.53;99.85
33161;BME280;19522;45.656;11.302;2023-01-19T05:06:18;96613.50;;;2.47;99.26
33161;BME280;19522;45.656;11.302;2023-01-19T05:08:44;96630.75;;;2.68;99.00
33161;BME280;19522;45.656;11.302;2023-01-19T05:11:09;96625.03;;;2.71;98.28
33161;BME280;19522;45.656;11.302;2023-01-19T05:13:35;96567.78;;;2.34;97.53
33161;BME280;19522;45.656;11.302;2023-01-19T05:16:01;96555.31;;;2.41;97.27
33161;BME280;19522;45.656;11.302;2023-01-19T05:18:26;96626.59;;;2.80;97.01
33161;BME280;19522;45.656;11.302;2023-01-19T05:20:52;96626.69;;;2.72;97.37
33161;BME280;19522;45.656;11.302;2023-01-19T05:23:18;96636.84;;;2.62;98.38
33161;BME280;19522;45.656;11.302;2023-01-19T05:25:43;96649.81;;;2.73;97.88
33161;BME280;19522;45.656;11.302;2023-01-19T05:28:09;96640.66;;;2.68;97.47
33161;BME280;19522;45.656;11.302;2023-01-19T05:30:35;96637.19;;;2.59;95.59
33161;BME280;19522;45.656;11.302;2023-01-19T05:33:00;96645.59;;;2.56;96.89
33161;BME280;19522;45.656;11.302;2023-01-19T05:35:26;96642.84;;;2.64;95.32
33161;BME280;19522;45.656;11.302;2023-01-19T05:37:52;96636.47;;;2.80;93.78
33161;BME280;19522;45.656;11.302;2023-01-19T05:40:17;96505.19;;;2.12;93.23
33161;BME280;19522;45.656;11.302;2023-01-19T05:42:43;96632.69;;;2.89;92.69
33161;BME280;19522;45.656;11.302;2023-01-19T05:45:08;96634.81;;;2.94;92.55
33161;BME280;19522;45.656;11.302;2023-01-19T05:47:34;96594.06;;;2.69;92.05
33161;BME280;19522;45.656;11.302;2023-01-19T05:50:00;96598.31;;;2.63;92.76
33161;BME280;19522;45.656;11.302;2023-01-19T05:52:25;96630.22;;;2.88;91.58
33161;BME280;19522;45.656;11.302;2023-01-19T05:54:51;96617.09;;;2.93;90.71
33161;BME280;19522;45.656;11.302;2023-01-19T05:57:18;96542.47;;;2.52;91.03
33161;BME280;19522;45.656;11.302;2023-01-19T05:59:44;96643.88;;;3.08;89.43
33161;BME280;19522;45.656;11.302;2023-01-19T06:02:09;96653.03;;;3.14;89.37
33161;BME280;19522;45.656;11.302;2023-01-19T06:04:35;96625.66;;;3.03;89.50
33161;BME280;19522;45.656;11.302;2023-01-19T06:07:00;96663.22;;;3.18;90.53
33161;BME280;19522;45.656;11.302;2023-01-19T06:09:26;96674.97;;;3.02;93.04
33161;BME280;19522;45.656;11.302;2023-01-19T06:11:52;96674.50;;;3.14;92.88
33161;BME280;19522;45.656;11.302;2023-01-19T06:14:21;96634.91;;;2.86;91.54
33161;BME280;19522;45.656;11.302;2023-01-19T06:16:47;96679.97;;;3.05;91.35
33161;BME280;19522;45.656;11.302;2023-01-19T06:19:12;96651.41;;;2.98;91.55
33161;BME280;19522;45.656;11.302;2023-01-19T06:21:39;96688.13;;;3.12;92.54
33161;BME280;19522;45.656;11.302;2023-01-19T06:24:05;96689.88;;;3.20;92.78
33161;BME280;19522;45.656;11.302;2023-01-19T06:26:30;96690.03;;;3.33;92.65
33161;BME280;19522;45.656;11.302;2023-01-19T06:28:56;96666.56;;;3.20;92.34
33161;BME280;19522;45.656;11.302;2023-01-19T06:31:21;96699.19;;;3.54;92.05
33161;BME280;19522;45.656;11.302;2023-01-19T06:33:47;96703.00;;;3.59;92.70
33161;BME280;19522;45.656;11.302;2023-01-19T06:36:12;96693.94;;;3.46;94.04
33161;BME280;19522;45.656;11.302;2023-01-19T06:38:38;96707.81;;;3.34;95.96
33161;BME280;19522;45.656;11.302;2023-01-19T06:41:03;96703.66;;;3.47;96.55
33161;BME280;19522;45.656;11.302;2023-01-19T06:43:30;96662.41;;;3.18;96.66
33161;BME280;19522;45.656;11.302;2023-01-19T06:45:56;96713.38;;;3.63;96.48
33161;BME280;19522;45.656;11.302;2023-01-19T06:48:22;96718.19;;;3.67;96.38
33161;BME280;19522;45.656;11.302;2023-01-19T06:50:48;96718.19;;;3.67;96.06
33161;BME280;19522;45.656;11.302;2023-01-19T06:53:14;96712.81;;;3.67;96.41
33161;BME280;19522;45.656;11.302;2023-01-19T06:55:44;96687.66;;;3.53;95.95
33161;BME280;19522;45.656;11.302;2023-01-19T06:58:10;96713.28;;;3.56;96.59
33161;BME280;19522;45.656;11.302;2023-01-19T07:00:36;96631.78;;;2.97;97.39
33161;BME280;19522;45.656;11.302;2023-01-19T07:03:01;96722.63;;;3.30;98.11
33161;BME280;19522;45.656;11.302;2023-01-19T07:05:27;96679.31;;;3.03;98.44
33161;BME280;19522;45.656;11.302;2023-01-19T07:07:54;96708.34;;;3.00;99.73
33161;BME280;19522;45.656;11.302;2023-01-19T07:10:20;96746.41;;;3.33;99.83
33161;BME280;19522;45.656;11.302;2023-01-19T07:12:46;96676.16;;;3.00;99.17
33161;BME280;19522;45.656;11.302;2023-01-19T07:15:16;96758.22;;;3.24;99.91
33161;BME280;19522;45.656;11.302;2023-01-19T07:17:43;96758.81;;;3.34;99.74
33161;BME280;19522;45.656;11.302;2023-01-19T07:20:12;96768.59;;;3.27;99.99
33161;BME280;19522;45.656;11.302;2023-01-19T07:22:39;96669.75;;;2.71;99.88
33161;BME280;19522;45.656;11.302;2023-01-19T07:25:09;96764.28;;;3.41;99.72
33161;BME280;19522;45.656;11.302;2023-01-19T07:27:34;96756.13;;;3.34;99.26
33161;BME280;19522;45.656;11.302;2023-01-19T07:30:00;96777.91;;;3.54;99.19
33161;BME280;19522;45.656;11.302;2023-01-19T07:32:27;96759.91;;;3.40;98.34
33161;BME280;19522;45.656;11.302;2023-01-19T07:34:53;96715.59;;;3.14;97.78
33161;BME280;19522;45.656;11.302;2023-01-19T07:37:18;96797.25;;;3.65;97.81
33161;BME280;19522;45.656;11.302;2023-01-19T07:39:44;96796.13;;;3.59;97.57
33161;BME280;19522;45.656;11.302;2023-01-19T07:42:09;96760.47;;;3.35;97.39
33161;BME280;19522;45.656;11.302;2023-01-19T07:44:35;96799.63;;;3.59;97.32
33161;BME280;19522;45.656;11.302;2023-01-19T07:47:01;96823.13;;;3.42;97.34
33161;BME280;19522;45.656;11.302;2023-01-19T07:49:27;96818.41;;;3.45;97.74
33161;BME280;19522;45.656;11.302;2023-01-19T07:51:52;96845.72;;;3.63;97.29
33161;BME280;19522;45.656;11.302;2023-01-19T07:54:21;96859.00;;;3.65;97.28
33161;BME280;19522;45.656;11.302;2023-01-19T07:56:46;96857.41;;;3.70;97.12
33161;BME280;19522;45.656;11.302;2023-01-19T07:59:12;96836.19;;;3.61;96.58
33161;BME280;19522;45.656;11.302;2023-01-19T08:01:37;96711.84;;;2.85;96.09
33161;BME280;19522;45.656;11.302;2023-01-19T08:04:03;96870.94;;;3.77;95.58
33161;BME280;19522;45.656;11.302;2023-01-19T08:06:32;96886.50;;;3.82;94.96
33161;BME280;19522;45.656;11.302;2023-01-19T08:08:58;96907.28;;;3.50;96.14
33161;BME280;19522;45.656;11.302;2023-01-19T08:11:24;96840.81;;;3.14;95.45
33161;BME280;19522;45.656;11.302;2023-01-19T08:13:49;96914.59;;;3.56;94.47
33161;BME280;19522;45.656;11.302;2023-01-19T08:16:15;96920.88;;;3.02;93.90
33161;BME280;19522;45.656;11.302;2023-01-19T08:18:40;96880.81;;;2.45;94.58
33161;BME280;19522;45.656;11.302;2023-01-19T08:21:06;96864.16;;;2.27;94.93
33161;BME280;19522;45.656;11.302;2023-01-19T08:23:32;96887.38;;;2.43;94.03
33161;BME280;19522;45.656;11.302;2023-01-19T08:25:57;96879.59;;;2.25;94.08
33161;BME280;19522;45.656;11.302;2023-01-19T08:28:23;96905.81;;;2.38;93.84
33161;BME280;19522;45.656;11.302;2023-01-19T08:30:48;96902.91;;;2.47;93.64
33161;BME280;19522;45.656;11.302;2023-01-19T08:33:21;96923.44;;;2.63;93.19
33161;BME280;19522;45.656;11.302;2023-01-19T08:35:50;96942.50;;;2.77;92.85
33161;BME280;19522;45.656;11.302;2023-01-19T08:38:16;96887.22;;;2.36;92.37
33161;BME280;19522;45.656;11.302;2023-01-19T08:40:42;96882.91;;;2.27;92.48
33161;BME280;19522;45.656;11.302;2023-01-19T08:43:12;96936.06;;;2.55;92.69
33161;BME280;19522;45.656;11.302;2023-01-19T08:45:41;96950.91;;;2.65;92.44
33161;BME280;19522;45.656;11.302;2023-01-19T08:48:16;96962.34;;;2.59;92.42
33161;BME280;19522;45.656;11.302;2023-01-19T08:50:45;96965.03;;;2.59;92.09
33161;BME280;19522;45.656;11.302;2023-01-19T08:53:11;96866.31;;;1.92;92.33
33161;BME280;19522;45.656;11.302;2023-01-19T08:55:36;96932.03;;;2.19;92.56
33161;BME280;19522;45.656;11.302;2023-01-19T08:58:03;96972.63;;;2.39;93.01
33161;BME280;19522;45.656;11.302;2023-01-19T09:00:29;96973.97;;;2.43;92.81
33161;BME280;19522;45.656;11.302;2023-01-19T09:02:56;96981.38;;;2.33;93.00
33161;BME280;19522;45.656;11.302;2023-01-19T09:05:22;96977.31;;;2.37;93.19
33161;BME280;19522;45.656;11.302;2023-01-19T09:07:48;96977.69;;;2.34;93.13
33161;BME280;19522;45.656;11.302;2023-01-19T09:10:16;96985.38;;;2.29;93.48
33161;BME280;19522;45.656;11.302;2023-01-19T09:12:42;96986.59;;;2.18;93.75
33161;BME280;19522;45.656;11.302;2023-01-19T09:15:09;96989.81;;;2.05;94.87
33161;BME280;19522;45.656;11.302;2023-01-19T09:17:36;96990.78;;;2.12;94.34
33161;BME280;19522;45.656;11.302;2023-01-19T09:20:02;96948.88;;;1.30;96.06
33161;BME280;19522;45.656;11.302;2023-01-19T09:22:28;96989.16;;;1.29;97.98
33161;BME280;19522;45.656;11.302;2023-01-19T09:24:54;96996.34;;;1.28;100.00
33161;BME280;19522;45.656;11.302;2023-01-19T09:27:19;96946.34;;;1.12;100.00
33161;BME280;19522;45.656;11.302;2023-01-19T09:29:45;97004.22;;;1.38;100.00
33161;BME280;19522;45.656;11.302;2023-01-19T09:32:17;97014.50;;;1.00;100.00
33161;BME280;19522;45.656;11.302;2023-01-19T09:34:44;97019.38;;;1.04;100.00
33161;BME280;19522;45.656;11.302;2023-01-19T09:37:09;97023.38;;;1.08;100.00
33161;BME280;19522;45.656;11.302;2023-01-19T09:39:35;97019.19;;;1.06;100.00
33161;BME280;19522;45.656;11.302;2023-01-19T09:42:12;96906.84;;;0.73;100.00
33161;BME280;19522;45.656;11.302;2023-01-19T09:44:42;96983.31;;;1.33;100.00
33161;BME280;19522;45.656;11.302;2023-01-19T09:47:14;97027.47;;;1.70;100.00
33161;BME280;19522;45.656;11.302;2023-01-19T09:49:44;97034.00;;;1.76;100.00
33161;BME280;19522;45.656;11.302;2023-01-19T09:52:13;96991.84;;;1.62;100.00
33161;BME280;19522;45.656;11.302;2023-01-19T09:57:13;97017.44;;;1.56;99.68
33161;BME280;19522;45.656;11.302;2023-01-19T09:59:39;97030.81;;;1.64;99.63
33161;BME280;19522;45.656;11.302;2023-01-19T10:02:23;97032.47;;;1.74;99.57
33161;BME280;19522;45.656;11.302;2023-01-19T10:05:03;97025.63;;;1.79;99.47
33161;BME280;19522;45.656;11.302;2023-01-19T10:18:40;97022.41;;;1.26;100.00
33161;BME280;19522;45.656;11.302;2023-01-19T10:23:54;97019.78;;;1.34;100.00
33161;BME280;19522;45.656;11.302;2023-01-19T10:26:26;97018.09;;;1.25;100.00
33161;BME280;19522;45.656;11.302;2023-01-19T10:29:01;97026.13;;;1.33;100.00
33161;BME280;19522;45.656;11.302;2023-01-19T10:31:27;96986.44;;;1.04;100.00
33161;BME280;19522;45.656;11.302;2023-01-19T10:33:52;97037.47;;;1.35;100.00
33161;BME280;19522;45.656;11.302;2023-01-19T10:36:24;97032.13;;;1.35;100.00
33161;BME280;19522;45.656;11.302;2023-01-19T10:38:51;97034.97;;;1.34;100.00
33161;BME280;19522;45.656;11.302;2023-01-19T10:41:19;97035.84;;;1.51;100.00
33161;BME280;19522;45.656;11.302;2023-01-19T10:43:47;97033.31;;;1.49;100.00
33161;BME280;19522;45.656;11.302;2023-01-19T10:46:20;97027.94;;;1.24;100.00
33161;BME280;19522;45.656;11.302;2023-01-19T10:48:50;97048.63;;;1.22;100.00
33161;BME280;19522;45.656;11.302;2023-01-19T10:51:17;97052.50;;;1.20;100.00
33161;BME280;19522;45.656;11.302;2023-01-19T10:53:53;97051.69;;;1.44;100.00
33161;BME280;19522;45.656;11.302;2023-01-19T10:56:38;97000.53;;;0.71;100.00
33161;BME280;19522;45.656;11.302;2023-01-19T10:59:05;97057.16;;;1.18;100.00
33161;BME280;19522;45.656;11.302;2023-01-19T11:01:32;97030.28;;;1.28;100.00
33161;BME280;19522;45.656;11.302;2023-01-19T11:04:25;97057.63;;;1.05;100.00
33161;BME280;19522;45.656;11.302;2023-01-19T11:09:39;97000.00;;;1.11;100.00
33161;BME280;19522;45.656;11.302;2023-01-19T11:12:04;97070.09;;;1.39;100.00
33161;BME280;19522;45.656;11.302;2023-01-19T11:14:30;97043.28;;;1.22;100.00
33161;BME280;19522;45.656;11.302;2023-01-19T11:16:56;97076.97;;;1.42;100.00
33161;BME280;19522;45.656;11.302;2023-01-19T11:19:30;97047.44;;;1.08;100.00
33161;BME280;19522;45.656;11.302;2023-01-19T11:24:39;97073.09;;;1.44;100.00
33161;BME280;19522;45.656;11.302;2023-01-19T11:27:05;97070.75;;;1.49;100.00
33161;BME280;19522;45.656;11.302;2023-01-19T11:29:30;97061.38;;;1.29;100.00
33161;BME280;19522;45.656;11.302;2023-01-19T11:32:09;97080.13;;;1.37;100.00
33161;BME280;19522;45.656;11.302;2023-01-19T11:34:36;97040.06;;;1.02;100.00
33161;BME280;19522;45.656;11.302;2023-01-19T11:37:28;97086.28;;;1.29;100.00
33161;BME280;19522;45.656;11.302;2023-01-19T11:39:55;97051.97;;;1.08;100.00
33161;BME280;19522;45.656;11.302;2023-01-19T11:42:22;97087.84;;;0.97;100.00
33161;BME280;19522;45.656;11.302;2023-01-19T11:44:59;97091.94;;;0.83;100.00
33161;BME280;19522;45.656;11.302;2023-01-19T11:47:47;97082.53;;;0.63;100.00
33161;BME280;19522;45.656;11.302;2023-01-19T11:50:32;97090.56;;;0.71;100.00
33161;BME280;19522;45.656;11.302;2023-01-19T11:53:05;97086.00;;;0.89;100.00
33161;BME280;19522;45.656;11.302;2023-01-19T11:55:55;97087.81;;;0.89;100.00
33161;BME280;19522;45.656;11.302;2023-01-19T11:58:22;97045.41;;;0.94;100.00
33161;BME280;19522;45.656;11.302;2023-01-19T12:01:28;97068.19;;;1.15;100.00
33161;BME280;19522;45.656;11.302;2023-01-19T12:04:11;96975.00;;;0.77;100.00
33161;BME280;19522;45.656;11.302;2023-01-19T12:06:49;97033.47;;;1.31;100.00
33161;BME280;19522;45.656;11.302;2023-01-19T12:09:20;97050.03;;;1.43;100.00
33161;BME280;19522;45.656;11.302;2023-01-19T12:11:54;97050.03;;;1.43;100.00
33161;BME280;19522;45.656;11.302;2023-01-19T12:14:30;97053.22;;;1.47;100.00
33161;BME280;19522;45.656;11.302;2023-01-19T12:17:02;97045.84;;;1.40;100.00
33161;BME280;19522;45.656;11.302;2023-01-19T12:19:42;97044.69;;;1.51;100.00
33161;BME280;19522;45.656;11.302;2023-01-19T12:22:16;97008.88;;;1.28;100.00
33161;BME280;19522;45.656;11.302;2023-01-19T12:24:54;97041.75;;;1.03;100.00
33161;BME280;19522;45.656;11.302;2023-01-19T12:27:38;97023.34;;;1.00;100.00
33161;BME280;19522;45.656;11.302;2023-01-19T12:30:20;97053.31;;;1.20;100.00
33161;BME280;19522;45.656;11.302;2023-01-19T12:32:46;97052.88;;;1.33;100.00
33161;BME280;19522;45.656;11.302;2023-01-19T12:41:22;97058.31;;;1.15;100.00
33161;BME280;19522;45.656;11.302;2023-01-19T12:58:06;97007.53;;;1.23;100.00
33161;BME280;19522;45.656;11.302;2023-01-19T13:00:40;97039.81;;;1.30;100.00
33161;BME280;19522;45.656;11.302;2023-01-19T13:15:57;97064.44;;;1.83;100.00
33161;BME280;19522;45.656;11.302;2023-01-19T13:18:25;97074.16;;;1.93;100.00
33161;BME280;19522;45.656;11.302;2023-01-19T13:20:59;97028.31;;;1.54;100.00
33161;BME280;19522;45.656;11.302;2023-01-19T13:23:27;97085.03;;;1.99;100.00
33161;BME280;19522;45.656;11.302;2023-01-19T13:26:03;97082.88;;;2.03;100.00
33161;BME280;19522;45.656;11.302;2023-01-19T13:28:34;97036.69;;;1.76;100.00
33161;BME280;19522;45.656;11.302;2023-01-19T13:31:04;97061.28;;;1.96;100.00
33161;BME280;19522;45.656;11.302;2023-01-19T13:33:58;97091.56;;;2.22;99.88
33161;BME280;19522;45.656;11.302;2023-01-19T13:36:37;97096.22;;;2.28;99.43
33161;BME280;19522;45.656;11.302;2023-01-19T13:39:13;97098.75;;;2.29;98.87
33161;BME280;19522;45.656;11.302;2023-01-19T13:41:41;97061.63;;;2.10;98.66
33161;BME280;19522;45.656;11.302;2023-01-19T13:46:42;97108.97;;;2.17;98.62
33161;BME280;19522;45.656;11.302;2023-01-19T13:49:21;97104.44;;;2.26;98.52
33161;BME280;19522;45.656;11.302;2023-01-19T13:54:28;97069.28;;;2.05;97.63
33161;BME280;19522;45.656;11.302;2023-01-19T13:56:54;97058.91;;;1.85;98.34
33161;BME280;19522;45.656;11.302;2023-01-19T13:59:19;97079.50;;;2.09;98.35
33161;BME280;19522;45.656;11.302;2023-01-19T14:01:45;97124.34;;;2.40;98.01
33161;BME280;19522;45.656;11.302;2023-01-19T14:04:27;97116.16;;;2.42;97.80
33161;BME280;19522;45.656;11.302;2023-01-19T14:06:56;97116.66;;;2.37;97.85
33161;BME280;19522;45.656;11.302;2023-01-19T14:09:22;97033.19;;;1.92;97.73
33161;BME280;19522;45.656;11.302;2023-01-19T14:14:29;97110.66;;;2.35;97.16
33161;BME280;19522;45.656;11.302;2023-01-19T14:16:54;97120.66;;;2.49;97.01
33161;BME280;19522;45.656;11.302;2023-01-19T14:19:20;97121.53;;;2.50;96.73
33161;BME280;19522;45.656;11.302;2023-01-19T14:21:57;97122.00;;;2.45;96.71
33161;BME280;19522;45.656;11.302;2023-01-19T14:24:22;97113.00;;;2.22;97.30
33161;BME280;19522;45.656;11.302;2023-01-19T14:27:17;97130.06;;;2.37;96.97
33161;BME280;19522;45.656;11.302;2023-01-19T14:29:43;97136.41;;;2.28;96.87
33161;BME280;19522;45.656;11.302;2023-01-19T14:32:21;97137.78;;;2.24;97.90